createdAt,value
2023-04-02T00:03:03.619Z,96568.48
2023-04-02T00:07:34.179Z,96566.40
2023-04-02T00:11:41.496Z,96570.98
2023-04-02T00:15:44.022Z,96571.36
2023-04-02T00:20:06.257Z,96572.60
2023-04-02T00:24:20.203Z,96577.80
2023-04-02T00:28:24.496Z,96579.60
2023-04-02T00:36:04.135Z,96588.30
2023-04-02T00:40:29.662Z,96589.95
2023-04-02T00:44:43.532Z,96591.45
2023-04-02T00:49:08.528Z,96589.69
2023-04-02T00:53:24.696Z,96590.96
2023-04-02T00:57:28.657Z,96587.85
2023-04-02T01:01:42.256Z,96589.63
2023-04-02T01:05:53.836Z,96591.66
2023-04-02T01:09:59.711Z,96594.13
2023-04-02T01:14:11.881Z,96599.23
2023-04-02T01:18:23.584Z,96602.05
2023-04-02T01:22:41.018Z,96601.60
2023-04-02T01:27:11.480Z,96603.13
2023-04-02T01:31:47.444Z,96603.73
2023-04-02T01:36:15.311Z,96601.06
2023-04-02T01:40:29.295Z,96602.82
2023-04-02T01:44:36.096Z,96607.21
2023-04-02T01:48:48.383Z,96604.52
2023-04-02T01:53:20.650Z,96610.36
2023-04-02T01:57:24.799Z,96612.00
2023-04-02T02:02:07.255Z,96616.51
2023-04-02T02:06:18.494Z,96617.94
2023-04-02T02:10:42.848Z,96617.89
2023-04-02T02:15:00.487Z,96621.40
2023-04-02T02:19:13.017Z,96629.93
2023-04-02T02:23:21.498Z,96630.73
2023-04-02T02:27:44.650Z,96629.02
2023-04-02T02:31:48.102Z,96635.38
2023-04-02T02:36:18.880Z,96636.27
2023-04-02T02:40:47.466Z,96632.58
2023-04-02T02:45:12.418Z,96633.88
2023-04-02T02:49:35.654Z,96638.39
2023-04-02T02:53:45.556Z,96644.02
2023-04-02T02:58:09.287Z,96648.66
2023-04-02T03:02:53.289Z,96656.17
2023-04-02T03:07:05.416Z,96654.98
2023-04-02T03:11:18.100Z,96656.59
2023-04-02T03:15:53.446Z,96655.08
2023-04-02T03:20:19.693Z,96658.33
2023-04-02T03:24:29.906Z,96661.00
2023-04-02T03:28:38.263Z,96662.54
2023-04-02T03:33:11.895Z,96667.78
2023-04-02T03:37:23.641Z,96670.11
2023-04-02T03:41:48.240Z,96675.27
2023-04-02T03:46:10.737Z,96673.91
2023-04-02T03:50:17.193Z,96675.41
2023-04-02T03:54:13.447Z,96684.30
2023-04-02T03:58:20.653Z,96688.80
2023-04-02T04:06:26.612Z,96694.23
2023-04-02T04:10:15.437Z,96700.02
2023-04-02T04:14:28.855Z,96698.60
2023-04-02T04:19:17.232Z,96703.57
2023-04-02T04:23:27.356Z,96710.52
2023-04-02T04:27:33.657Z,96715.52
2023-04-02T04:31:52.609Z,96715.76
2023-04-02T04:36:29.141Z,96719.51
2023-04-02T04:41:03.361Z,96722.79
2023-04-02T04:45:44.515Z,96721.99
2023-04-02T04:50:13.051Z,96726.63
2023-04-02T04:54:46.009Z,96732.72
2023-04-02T04:58:59.963Z,96739.02
2023-04-02T05:03:03.781Z,96740.54
2023-04-02T05:07:42.504Z,96743.71
2023-04-02T05:12:00.389Z,96746.79
2023-04-02T05:16:24.612Z,96746.86
2023-04-02T05:20:33.081Z,96744.86
2023-04-02T05:24:40.944Z,96737.77
2023-04-02T05:28:54.416Z,96744.55
2023-04-02T05:33:18.819Z,96744.84
2023-04-02T05:37:23.976Z,96746.81
2023-04-02T05:41:38.646Z,96748.73
2023-04-02T05:45:54.783Z,96755.96
2023-04-02T05:50:32.675Z,96760.98
2023-04-02T05:54:27.829Z,96763.80
2023-04-02T05:58:57.295Z,96764.27
2023-04-02T06:02:56.514Z,96769.48
2023-04-02T06:07:05.660Z,96770.67
2023-04-02T06:11:30.650Z,96774.48
2023-04-02T06:15:34.701Z,96776.69
2023-04-02T06:19:57.391Z,96781.38
2023-04-02T06:24:34.092Z,96786.15
2023-04-02T06:28:46.328Z,96798.75
2023-04-02T06:33:06.383Z,96800.73
2023-04-02T06:37:10.353Z,96805.16
2023-04-02T06:41:38.815Z,96820.67
2023-04-02T06:45:45.153Z,96836.55
2023-04-02T06:50:10.429Z,96850.35
2023-04-02T06:54:11.293Z,96875.59
2023-04-02T06:57:21.808Z,96893.36
2023-04-02T07:00:41.086Z,96898.78
2023-04-02T07:03:51.317Z,96917.23
2023-04-02T07:06:54.378Z,96926.95
2023-04-02T07:09:59.821Z,96932.27
2023-04-02T07:18:00.120Z,96948.68
2023-04-02T07:26:07.474Z,96972.45
2023-04-02T07:29:16.210Z,96987.79
2023-04-02T07:32:20.638Z,96993.71
2023-04-02T07:35:23.953Z,97000.74
2023-04-02T07:38:26.894Z,97004.48
2023-04-02T07:41:29.899Z,97022.60
2023-04-02T07:44:33.098Z,97030.21
2023-04-02T07:47:36.213Z,97036.04
2023-04-02T07:50:39.592Z,97044.27
2023-04-02T07:53:53.987Z,97056.23
2023-04-02T07:57:37.473Z,97059.65
2023-04-02T08:06:15.433Z,97086.02
2023-04-02T08:12:39.747Z,97098.09
2023-04-02T08:16:46.894Z,97105.89
2023-04-02T08:21:22.906Z,97116.67
2023-04-02T08:25:37.959Z,97125.04
2023-04-02T08:29:04.046Z,97129.34
2023-04-02T08:32:07.716Z,97134.50
2023-04-02T08:43:59.465Z,97156.27
2023-04-02T08:52:14.017Z,97177.20
2023-04-02T08:56:09.036Z,97179.55
2023-04-02T09:02:53.036Z,97203.73
2023-04-02T09:10:36.984Z,97219.04
2023-04-02T09:32:50.673Z,97256.23
2023-04-02T09:35:58.062Z,97266.55
2023-04-02T09:39:17.912Z,97274.16
2023-04-02T09:42:54.135Z,97282.63
2023-04-02T09:48:14.563Z,97292.31
2023-04-02T09:52:48.285Z,97300.42
2023-04-02T09:56:43.901Z,97314.08
2023-04-02T10:03:36.085Z,97321.17
2023-04-02T10:06:50.577Z,97319.59
2023-04-02T10:10:02.763Z,97320.04
2023-04-02T10:13:14.477Z,97321.41
2023-04-02T10:16:39.905Z,97322.56
2023-04-02T10:19:50.659Z,97328.53
2023-04-02T10:22:53.648Z,97328.73
2023-04-02T10:26:38.284Z,97332.44
2023-04-02T10:30:09.694Z,97337.79
2023-04-02T10:33:20.212Z,97342.84
2023-04-02T10:36:42.151Z,97342.31
2023-04-02T10:39:55.323Z,97347.72
2023-04-02T10:43:25.373Z,97351.39
2023-04-02T10:46:34.270Z,97354.02
2023-04-02T10:50:10.154Z,97358.30
2023-04-02T10:53:21.679Z,97359.24
2023-04-02T10:56:26.515Z,97360.88
2023-04-02T10:59:35.697Z,97364.88
2023-04-02T11:03:31.618Z,97363.95
2023-04-02T11:06:49.483Z,97373.13
2023-04-02T11:09:58.404Z,97382.98
2023-04-02T11:13:15.661Z,97386.16
2023-04-02T11:16:22.382Z,97387.90
2023-04-02T11:19:29.896Z,97387.19
2023-04-02T11:22:33.058Z,97392.67
2023-04-02T11:25:43.582Z,97393.80
2023-04-02T11:28:46.969Z,97397.86
2023-04-02T11:32:12.939Z,97405.68
2023-04-02T11:35:31.588Z,97408.21
2023-04-02T11:38:46.930Z,97415.30
2023-04-02T11:42:25.216Z,97424.20
2023-04-02T11:45:32.241Z,97425.90
2023-04-02T11:48:37.248Z,97423.02
2023-04-02T11:51:41.031Z,97427.58
2023-04-02T11:54:44.607Z,97429.94
2023-04-02T11:57:59.341Z,97434.23
2023-04-02T12:01:30.118Z,97434.30
2023-04-02T12:05:09.653Z,97442.01
2023-04-02T12:08:18.989Z,97443.29
2023-04-02T12:11:38.060Z,97445.45
2023-04-02T12:14:47.478Z,97445.73
2023-04-02T12:17:51.101Z,97450.30
2023-04-02T12:20:57.135Z,97449.05
2023-04-02T12:24:00.908Z,97455.00
2023-04-02T12:27:15.774Z,97454.92
2023-04-02T12:30:22.422Z,97452.23
2023-04-02T12:33:37.514Z,97456.17
2023-04-02T12:36:40.621Z,97454.67
2023-04-02T12:39:52.606Z,97455.61
2023-04-02T12:42:55.619Z,97464.21
2023-04-02T12:46:02.291Z,97465.58
2023-04-02T12:49:08.011Z,97462.31
2023-04-02T12:52:14.742Z,97464.55
2023-04-02T12:55:21.490Z,97464.03
2023-04-02T12:58:37.916Z,97469.16
2023-04-02T13:01:57.292Z,97469.87
2023-04-02T13:09:43.306Z,97471.11
2023-04-02T13:14:15.275Z,97476.34
2023-04-02T13:18:55.412Z,97480.92
2023-04-02T13:23:04.100Z,97495.27
2023-04-02T13:26:59.699Z,97497.68
2023-04-02T13:31:10.574Z,97494.81
2023-04-02T13:35:27.591Z,97500.56
2023-04-02T13:39:52.010Z,97502.96
2023-04-02T13:44:24.408Z,97513.05
2023-04-02T13:48:56.168Z,97516.95
2023-04-02T13:53:10.691Z,97525.77
2023-04-02T13:56:55.346Z,97536.65
2023-04-02T14:01:03.366Z,97541.04
2023-04-02T14:05:07.441Z,97545.98
2023-04-02T14:09:18.053Z,97545.42
2023-04-02T14:13:55.144Z,97548.41
2023-04-02T14:18:18.332Z,97556.25
2023-04-02T14:23:05.831Z,97560.75
2023-04-02T14:27:40.193Z,97567.83
2023-04-02T14:31:51.062Z,97568.63
2023-04-02T14:36:04.182Z,97566.39
2023-04-02T14:40:57.355Z,97579.02
2023-04-02T14:45:05.088Z,97578.84
2023-04-02T14:49:31.866Z,97584.19
2023-04-02T14:54:02.533Z,97585.30
2023-04-02T14:58:05.994Z,97587.90
2023-04-02T15:02:18.523Z,97592.27
2023-04-02T15:07:06.814Z,97590.59
2023-04-02T15:11:13.981Z,97599.96
2023-04-02T15:15:39.045Z,97603.95
2023-04-02T15:19:55.304Z,97608.46
2023-04-02T15:24:07.858Z,97613.92
2023-04-02T15:28:58.564Z,97627.52
2023-04-02T15:33:05.472Z,97641.38
2023-04-02T15:37:11.161Z,97647.96
2023-04-02T15:41:23.031Z,97648.22
2023-04-02T15:45:30.434Z,97645.52
2023-04-02T15:50:06.914Z,97652.15
2023-04-02T15:54:30.330Z,97658.95
2023-04-02T15:58:59.084Z,97663.02
2023-04-02T16:03:20.930Z,97667.60
2023-04-02T16:07:51.930Z,97676.19
2023-04-02T16:12:20.167Z,97684.71
2023-04-02T16:16:52.596Z,97688.44
2023-04-02T16:21:01.420Z,97695.98
2023-04-02T16:25:28.507Z,97703.18
2023-04-02T16:30:02.019Z,97711.45
2023-04-02T16:34:31.071Z,97717.33
2023-04-02T16:38:32.905Z,97716.52
2023-04-02T16:43:05.948Z,97730.92
2023-04-02T16:47:45.531Z,97729.79
2023-04-02T16:52:31.745Z,97732.75
2023-04-02T16:57:22.798Z,97744.45
2023-04-02T17:01:41.163Z,97743.33
2023-04-02T17:06:03.153Z,97749.89
2023-04-02T17:10:19.733Z,97754.03
2023-04-02T17:14:24.081Z,97763.81
2023-04-02T17:18:39.430Z,97764.50
2023-04-02T17:22:58.125Z,97768.36
2023-04-02T17:27:23.196Z,97769.81
2023-04-02T17:31:37.420Z,97772.79
2023-04-02T17:36:15.585Z,97773.52
2023-04-02T17:40:27.491Z,97774.63
2023-04-02T17:45:03.818Z,97780.40
2023-04-02T17:49:20.361Z,97786.39
2023-04-02T17:53:39.268Z,97785.52
2023-04-02T17:57:53.729Z,97794.55
2023-04-02T18:01:57.944Z,97803.59
2023-04-02T18:06:21.107Z,97801.55
2023-04-02T18:10:49.543Z,97808.45
2023-04-02T18:15:02.933Z,97806.80
2023-04-02T18:19:34.534Z,97819.60
2023-04-02T18:24:11.854Z,97822.98
2023-04-02T18:28:36.645Z,97829.48
2023-04-02T18:32:45.296Z,97835.45
2023-04-02T18:37:31.195Z,97839.34
2023-04-02T18:41:44.989Z,97843.79
2023-04-02T18:46:04.689Z,97848.21
2023-04-02T18:50:51.285Z,97853.27
2023-04-02T18:55:01.068Z,97854.38
2023-04-02T18:59:12.906Z,97856.74
2023-04-02T19:03:47.702Z,97866.54
2023-04-02T19:08:03.294Z,97867.93
2023-04-02T19:12:10.605Z,97868.55
2023-04-02T19:16:51.068Z,97872.34
2023-04-02T19:21:25.199Z,97878.58
2023-04-02T19:25:39.313Z,97880.14
2023-04-02T19:30:20.440Z,97881.02
2023-04-02T19:34:40.163Z,97880.75
2023-04-02T19:38:59.709Z,97885.89
2023-04-02T19:43:35.609Z,97887.95
2023-04-02T19:48:20.591Z,97893.17
2023-04-02T19:52:29.548Z,97890.69
2023-04-02T19:56:45.775Z,97893.00
2023-04-02T20:07:37.313Z,97899.99
2023-04-02T20:11:54.428Z,97898.58
2023-04-02T20:16:17.936Z,97898.24
2023-04-02T20:20:34.331Z,97902.31
2023-04-02T20:24:48.387Z,97905.13
2023-04-02T20:29:04.902Z,97906.20
2023-04-02T20:33:18.026Z,97915.96
2023-04-02T20:37:39.665Z,97911.92
2023-04-02T20:42:03.751Z,97916.77
2023-04-02T20:46:35.439Z,97916.71
2023-04-02T20:50:51.706Z,97917.36
2023-04-02T20:55:03.928Z,97914.66
2023-04-02T20:59:24.405Z,97916.15
2023-04-02T21:03:37.033Z,97913.51
2023-04-02T21:07:53.854Z,97918.73
2023-04-02T21:12:16.984Z,97914.73
2023-04-02T21:16:25.732Z,97916.52
2023-04-02T21:20:41.951Z,97919.76
2023-04-02T21:25:01.538Z,97921.97
2023-04-02T21:29:05.260Z,97921.23
2023-04-02T21:35:52.958Z,97926.05
2023-04-02T21:40:01.544Z,97926.30
2023-04-02T21:44:08.319Z,97925.80
2023-04-02T21:48:40.437Z,97926.74
2023-04-02T21:53:01.018Z,97932.93
2023-04-02T21:57:29.046Z,97933.45
2023-04-02T22:05:39.765Z,97948.77
2023-04-02T22:10:06.314Z,97947.67
2023-04-02T22:14:29.179Z,97947.65
2023-04-02T22:18:58.514Z,97949.27
2023-04-02T22:23:15.695Z,97952.34
2023-04-02T22:27:31.934Z,97957.04
2023-04-02T22:35:55.193Z,97959.16
2023-04-02T22:39:56.396Z,97963.63
2023-04-02T22:43:55.701Z,97961.47
2023-04-02T22:48:22.448Z,97963.48
2023-04-02T22:52:44.716Z,97969.13
2023-04-02T22:56:53.233Z,97966.35
2023-04-02T23:06:43.070Z,97974.10
2023-04-02T23:10:59.881Z,97970.48
2023-04-02T23:15:08.024Z,97973.36
2023-04-02T23:19:34.641Z,97975.77
2023-04-02T23:23:48.270Z,97974.73
2023-04-02T23:27:56.882Z,97974.42
2023-04-02T23:35:42.946Z,97977.92
2023-04-02T23:40:17.594Z,97987.09
2023-04-02T23:44:29.724Z,97987.23
2023-04-02T23:48:41.514Z,97991.23
2023-04-02T23:53:24.766Z,97987.12
2023-04-02T23:57:52.737Z,97993.96
